createdAt,value
2018-07-21T00:07:43.862Z,13.33
2018-07-21T00:17:45.160Z,13.27
2018-07-21T00:27:47.195Z,12.87
2018-07-21T00:47:57.535Z,14.13
2018-07-21T00:57:58.781Z,13.00
2018-07-21T01:08:00.035Z,14.33
2018-07-21T01:18:02.119Z,13.83
2018-07-21T01:28:03.381Z,13.40
2018-07-21T01:38:04.692Z,13.03
2018-07-21T01:48:05.935Z,14.33
2018-07-21T01:58:08.248Z,13.97
2018-07-21T02:08:09.510Z,15.07
2018-07-21T02:18:10.783Z,14.23
2018-07-21T02:28:12.051Z,14.17
2018-07-21T02:38:14.109Z,14.50
2018-07-21T02:48:15.400Z,13.23
2018-07-21T02:58:16.702Z,13.20
2018-07-21T03:08:17.955Z,13.20
2018-07-21T03:18:20.002Z,13.60
2018-07-21T03:28:21.301Z,14.73
2018-07-21T03:38:22.537Z,13.80
2018-07-21T03:48:24.628Z,15.20
2018-07-21T03:58:25.886Z,15.97
2018-07-21T04:08:27.153Z,14.37
2018-07-21T04:28:36.097Z,13.93
2018-07-21T04:38:38.104Z,13.03
2018-07-21T04:48:39.341Z,13.17
2018-07-21T04:58:46.308Z,13.07
2018-07-21T05:08:47.553Z,12.40
2018-07-21T05:18:48.802Z,12.70
2018-07-21T05:28:50.080Z,12.60
2018-07-21T05:38:51.346Z,11.90
2018-07-21T05:48:52.625Z,10.93
2018-07-21T06:09:05.053Z,10.90
2018-07-21T06:19:06.323Z,10.90
2018-07-21T06:29:07.624Z,9.97
2018-07-21T06:39:09.965Z,9.53
2018-07-21T06:49:12.000Z,9.50
2018-07-21T06:59:16.349Z,9.03
2018-07-21T07:09:17.601Z,8.63
2018-07-21T07:19:18.876Z,8.07
2018-07-21T07:29:20.154Z,8.23
2018-07-21T07:39:21.435Z,8.13
2018-07-21T07:49:23.466Z,7.78
2018-07-21T07:59:24.755Z,7.10
2018-07-21T08:09:26.026Z,6.93
2018-07-21T08:19:27.356Z,6.87
2018-07-21T08:29:28.591Z,6.93
2018-07-21T08:39:29.850Z,6.75
2018-07-21T08:49:31.145Z,6.72
2018-07-21T09:19:46.713Z,7.50
2018-07-21T09:29:48.026Z,6.57
2018-07-21T09:39:49.286Z,6.55
2018-07-21T09:49:50.571Z,4.32
2018-07-21T09:59:52.628Z,4.73
2018-07-21T10:09:53.956Z,4.70
2018-07-21T10:19:55.224Z,3.65
2018-07-21T10:29:56.499Z,4.18
2018-07-21T10:39:57.770Z,4.60
2018-07-21T10:49:59.810Z,3.90
2018-07-21T11:00:01.110Z,3.47
2018-07-21T11:10:02.408Z,3.40
2018-07-21T11:20:03.675Z,3.28
2018-07-21T11:30:04.952Z,3.35
2018-07-21T11:40:06.221Z,2.62
2018-07-21T11:50:07.515Z,3.10
2018-07-21T12:00:08.809Z,5.25
2018-07-21T12:10:10.089Z,6.35
2018-07-21T12:20:11.406Z,6.45
2018-07-21T12:30:12.645Z,6.12
2018-07-21T12:40:14.024Z,7.10
2018-07-21T12:50:15.228Z,8.63
2018-07-21T13:00:16.502Z,9.17
2018-07-21T13:10:17.778Z,9.87
2018-07-21T13:20:19.049Z,9.37
2018-07-21T13:30:20.303Z,11.37
2018-07-21T13:40:22.402Z,9.27
2018-07-21T13:50:23.674Z,9.57
2018-07-21T14:10:33.065Z,11.27
2018-07-21T14:20:34.310Z,8.10
2018-07-21T14:30:35.607Z,9.67
2018-07-21T14:40:36.953Z,9.17
2018-07-21T14:50:38.245Z,10.07
2018-07-21T15:20:52.937Z,8.07
2018-07-21T15:30:54.174Z,8.63
2018-07-21T15:51:02.263Z,7.87
2018-07-21T16:01:04.292Z,6.67
2018-07-21T16:21:12.254Z,5.93
2018-07-21T16:31:13.538Z,5.97
2018-07-21T16:41:14.779Z,5.63
2018-07-21T16:51:16.811Z,6.47
2018-07-21T17:01:18.115Z,5.77
2018-07-21T17:11:19.628Z,5.63
2018-07-21T17:21:21.746Z,5.80
2018-07-21T17:31:23.025Z,5.90
2018-07-21T17:41:24.329Z,5.33
2018-07-21T17:51:26.367Z,5.83
2018-07-21T18:01:32.723Z,5.63
2018-07-21T18:11:34.796Z,5.57
2018-07-21T18:21:36.052Z,6.50
2018-07-21T18:31:37.348Z,5.87
2018-07-21T18:41:45.046Z,5.20
2018-07-21T18:51:46.302Z,5.07
2018-07-21T19:01:47.571Z,4.53
2018-07-21T19:11:49.584Z,4.97
2018-07-21T19:21:51.603Z,4.80
2018-07-21T19:31:53.705Z,5.60
2018-07-21T19:41:54.897Z,5.77
2018-07-21T19:52:00.672Z,5.13
2018-07-21T20:02:02.592Z,4.40
2018-07-21T20:12:03.930Z,4.30
2018-07-21T20:22:05.672Z,3.83
2018-07-21T20:32:06.990Z,4.23
2018-07-21T20:52:17.473Z,3.97
2018-07-21T21:02:18.751Z,3.40
2018-07-21T21:12:22.191Z,3.10
2018-07-21T21:22:23.443Z,3.40
2018-07-21T21:32:25.553Z,3.93
2018-07-21T21:42:27.714Z,3.80
2018-07-21T21:52:28.988Z,3.90
2018-07-21T22:12:38.693Z,4.03
2018-07-21T22:22:39.958Z,4.90
2018-07-21T22:32:41.228Z,4.57
2018-07-21T22:42:42.493Z,4.83
2018-07-21T22:52:43.796Z,4.90
2018-07-21T23:02:45.830Z,4.63
2018-07-21T23:12:47.093Z,4.60
2018-07-21T23:22:48.352Z,4.53
2018-07-21T23:32:49.626Z,4.90
2018-07-21T23:42:50.885Z,5.67
2018-07-21T23:52:52.146Z,5.90
